Time;durP1;ratioP1;P1;durP2;ratioP2;P2;SDS_P1;SDS_P2;PMS_P1;PMS_P2;Temp;Humidity;BMP_temperature;BMP_pressure;BME280_temperature;BME280_humidity;BME280_pressure;Samples;Min_cycle;Max_cycle;Signal;HPM_P1;HPM_P2
2023/07/08 00:01:19;;;;;;;;;;;;;;;26.23;33.46;100552.13;4833074;29;6937;-73
2023/07/08 00:03:45;;;;;;;;;;;;;;;26.23;33.18;100553.00;4846775;29;6781;-73
2023/07/08 00:06:23;;;;;;;;;;;;;;;26.24;33.00;100548.63;4832200;29;6929;-73
2023/07/08 00:08:49;;;;;;;;;;;;;;;26.25;33.17;100540.72;4845693;29;6788;-73
2023/07/08 00:11:16;;;;;;;;;;;;;;;26.26;32.67;100533.69;4832444;29;7047;-73
2023/07/08 00:13:42;;;;;;;;;;;;;;;26.26;33.01;100542.44;4829857;29;6941;-73
2023/07/08 00:16:15;;;;;;;;;;;;;;;26.25;32.84;100538.09;4847665;29;6773;-73
2023/07/08 00:18:41;;;;;;;;;;;;;;;26.24;32.75;100533.72;4831217;29;7061;-72
2023/07/08 00:21:14;;;;;;;;;;;;;;;26.23;32.98;100537.25;4845725;29;6857;-72
2023/07/08 00:23:50;;;;;;;;;;;;;;;26.25;32.51;100537.22;4847313;29;6869;-73
2023/07/08 00:26:30;;;;;;;;;;;;;;;26.24;33.11;100533.72;4826973;29;7206;-73
2023/07/08 00:28:56;;;;;;;;;;;;;;;26.24;32.93;100535.47;4848416;29;7044;-73
2023/07/08 00:31:25;;;;;;;;;;;;;;;26.20;32.86;100532.03;4848231;29;6793;-73
2023/07/08 00:33:55;;;;;;;;;;;;;;;26.18;33.04;100523.28;4844225;29;7230;-73
2023/07/08 00:36:24;;;;;;;;;;;;;;;26.17;33.02;100521.53;4843231;29;6793;-73
2023/07/08 00:38:50;;;;;;;;;;;;;;;26.14;32.85;100517.19;4842097;29;6969;-73
2023/07/08 00:41:22;;;;;;;;;;;;;;;26.13;33.08;100520.72;4840840;29;6918;-72
2023/07/08 00:43:52;;;;;;;;;;;;;;;26.11;33.33;100513.75;4844343;29;7233;-73
2023/07/08 00:46:27;;;;;;;;;;;;;;;26.07;33.08;100511.19;4856155;29;6982;-73
2023/07/08 00:49:21;;;;;;;;;;;;;;;26.04;33.23;100510.34;4837686;29;7568;-73
2023/07/08 00:51:47;;;;;;;;;;;;;;;26.00;33.39;100513.91;4841861;29;7455;-73
2023/07/08 00:54:16;;;;;;;;;;;;;;;25.96;33.52;100518.34;4859035;29;6804;-72
2023/07/08 00:56:53;;;;;;;;;;;;;;;25.92;33.39;100516.63;4844772;29;6979;-73
2023/07/08 00:59:37;;;;;;;;;;;;;;;25.89;33.50;100511.44;4833674;29;7013;-73
2023/07/08 01:02:09;;;;;;;;;;;;;;;25.81;33.44;100508.94;4843079;29;6824;-73
2023/07/08 01:04:54;;;;;;;;;;;;;;;25.76;33.49;100510.72;4842845;29;7060;-72
2023/07/08 01:07:22;;;;;;;;;;;;;;;25.72;33.90;100509.91;4827074;29;7368;-72
2023/07/08 01:09:57;;;;;;;;;;;;;;;25.72;33.63;100515.16;4863138;29;6880;-73
2023/07/08 01:12:34;;;;;;;;;;;;;;;25.70;33.61;100508.22;4845120;29;6801;-73
2023/07/08 01:15:03;;;;;;;;;;;;;;;25.69;33.93;100509.06;4838251;29;7190;-72
2023/07/08 01:17:32;;;;;;;;;;;;;;;25.67;33.98;100502.97;4844281;29;6808;-73
2023/07/08 01:20:04;;;;;;;;;;;;;;;25.64;33.73;100507.38;4843544;29;7209;-72
2023/07/08 01:22:32;;;;;;;;;;;;;;;25.59;33.76;100503.97;4857127;29;6983;-73
2023/07/08 01:25:03;;;;;;;;;;;;;;;25.56;33.89;100505.75;4847363;29;7043;-73
2023/07/08 01:27:37;;;;;;;;;;;;;;;25.49;33.94;100500.53;4858338;29;7014;-74
2023/07/08 01:30:06;;;;;;;;;;;;;;;25.43;34.10;100505.00;4827270;29;6836;-73
2023/07/08 01:32:43;;;;;;;;;;;;;;;25.37;34.00;100506.81;4846694;29;7137;-73
2023/07/08 01:35:11;;;;;;;;;;;;;;;25.33;34.20;100506.84;4842338;29;6812;-72
2023/07/08 01:37:52;;;;;;;;;;;;;;;25.27;34.14;100497.31;4865494;29;6797;-73
2023/07/08 01:40:36;;;;;;;;;;;;;;;25.19;34.41;100500.03;4844324;29;6848;-72
2023/07/08 01:43:05;;;;;;;;;;;;;;;25.14;34.60;100511.47;4843157;29;6947;-72
2023/07/08 01:45:41;;;;;;;;;;;;;;;25.08;34.05;100502.75;4861012;29;6804;-72
2023/07/08 01:48:13;;;;;;;;;;;;;;;25.03;34.45;100501.06;4863804;29;6828;-74
2023/07/08 01:50:54;;;;;;;;;;;;;;;24.98;34.76;100505.50;4845340;29;6829;-75
2023/07/08 01:53:40;;;;;;;;;;;;;;;24.94;34.63;100496.81;4828656;29;7466;-72
2023/07/08 01:56:07;;;;;;;;;;;;;;;24.89;34.87;100501.22;4828550;29;7158;-72
2023/07/08 01:58:34;;;;;;;;;;;;;;;24.84;35.46;100497.78;4845815;29;6796;-72
2023/07/08 02:01:00;;;;;;;;;;;;;;;24.76;35.42;100493.44;4845015;29;6805;-72
2023/07/08 02:03:26;;;;;;;;;;;;;;;24.70;35.38;100493.50;4843983;29;6788;-72
2023/07/08 02:05:52;;;;;;;;;;;;;;;24.61;35.49;100483.09;4845000;29;6877;-73
2023/07/08 02:08:19;;;;;;;;;;;;;;;24.51;35.71;100479.69;4842163;29;6841;-72
2023/07/08 02:10:52;;;;;;;;;;;;;;;24.44;35.79;100472.78;4861960;29;6949;-72
2023/07/08 02:13:19;;;;;;;;;;;;;;;24.39;36.29;100478.03;4845273;29;7033;-73
2023/07/08 02:15:45;;;;;;;;;;;;;;;24.34;36.51;100478.09;4849039;29;7290;-73
2023/07/08 02:18:11;;;;;;;;;;;;;;;24.30;36.40;100483.34;4844544;29;6848;-72
2023/07/08 02:20:36;;;;;;;;;;;;;;;24.25;36.45;100481.66;4845671;29;6848;-73
2023/07/08 02:23:02;;;;;;;;;;;;;;;24.21;36.55;100485.16;4855207;29;6958;-72
2023/07/08 02:25:28;;;;;;;;;;;;;;;24.16;37.06;100478.22;4862400;29;7172;-72
2023/07/08 02:27:57;;;;;;;;;;;;;;;24.12;37.45;100479.97;4845297;29;6804;-72
2023/07/08 02:30:26;;;;;;;;;;;;;;;24.08;37.16;100479.13;4844992;29;6814;-74
2023/07/08 02:33:01;;;;;;;;;;;;;;;24.04;37.82;100481.75;4846716;29;6996;-73
2023/07/08 02:35:30;;;;;;;;;;;;;;;23.98;37.14;100475.69;4841430;29;6820;-72
2023/07/08 02:37:57;;;;;;;;;;;;;;;23.95;37.45;100474.84;4829267;29;7005;-73
2023/07/08 02:40:24;;;;;;;;;;;;;;;23.89;37.82;100478.38;4840154;29;6975;-69
2023/07/08 02:42:50;;;;;;;;;;;;;;;23.84;38.07;100473.16;4840708;29;6785;-72
2023/07/08 02:45:17;;;;;;;;;;;;;;;23.79;37.72;100476.69;4854316;29;6797;-71
2023/07/08 02:47:44;;;;;;;;;;;;;;;23.75;38.22;100472.31;4842305;29;7686;-70
2023/07/08 02:50:11;;;;;;;;;;;;;;;23.69;38.44;100481.06;4841308;29;8132;-70
2023/07/08 02:52:37;;;;;;;;;;;;;;;23.62;38.77;100472.41;4843195;29;6868;-70
2023/07/08 02:55:03;;;;;;;;;;;;;;;23.58;38.32;100478.53;4843893;29;6776;-70
2023/07/08 02:57:29;;;;;;;;;;;;;;;23.53;38.64;100480.28;4860453;29;6788;-70
2023/07/08 02:59:54;;;;;;;;;;;;;;;23.50;38.87;100489.00;4842822;29;6784;-71
2023/07/08 03:02:22;;;;;;;;;;;;;;;23.46;38.90;100496.88;4843926;29;7116;-71
2023/07/08 03:04:49;;;;;;;;;;;;;;;23.40;39.32;100490.81;4865101;29;6797;-70
2023/07/08 03:07:17;;;;;;;;;;;;;;;23.36;39.07;100485.59;4857750;29;6788;-71
2023/07/08 03:09:43;;;;;;;;;;;;;;;23.33;39.31;100488.22;4848763;29;7030;-70
2023/07/08 03:12:11;;;;;;;;;;;;;;;23.29;39.47;100488.22;4845562;29;7115;-70
2023/07/08 03:14:36;;;;;;;;;;;;;;;23.25;39.41;100482.97;4865650;29;6793;-70
2023/07/08 03:17:03;;;;;;;;;;;;;;;23.21;39.45;100491.72;4841486;29;6789;-70
2023/07/08 03:19:29;;;;;;;;;;;;;;;23.14;39.37;100491.72;4858788;29;7089;-71
2023/07/08 03:21:55;;;;;;;;;;;;;;;23.10;39.33;100494.34;4840921;29;6849;-70
2023/07/08 03:24:20;;;;;;;;;;;;;;;23.06;39.25;100501.31;4824906;29;6991;-70
2023/07/08 03:26:46;;;;;;;;;;;;;;;23.02;39.78;100500.44;4823909;29;7176;-70
2023/07/08 03:29:18;;;;;;;;;;;;;;;22.97;39.43;100488.28;4857742;29;6924;-70
2023/07/08 03:31:45;;;;;;;;;;;;;;;22.94;40.04;100496.13;4863274;29;6789;-70
2023/07/08 03:34:14;;;;;;;;;;;;;;;22.89;39.72;100488.28;4843474;29;7156;-71
2023/07/08 03:36:49;;;;;;;;;;;;;;;22.84;39.79;100488.31;4841496;29;6852;-72
2023/07/08 03:39:17;;;;;;;;;;;;;;;22.80;40.44;100486.56;4862373;29;6864;-72
2023/07/08 03:41:44;;;;;;;;;;;;;;;22.77;40.64;100486.56;4841377;29;6801;-71
2023/07/08 03:44:10;;;;;;;;;;;;;;;22.73;40.27;100490.91;4855995;29;7073;-71
2023/07/08 03:46:35;;;;;;;;;;;;;;;22.75;40.41;100493.53;4844388;29;6800;-71
2023/07/08 03:49:01;;;;;;;;;;;;;;;22.76;40.45;100500.50;4857447;29;7011;-71
2023/07/08 03:51:34;;;;;;;;;;;;;;;22.78;40.16;100498.75;4824442;29;7014;-70
2023/07/08 03:54:00;;;;;;;;;;;;;;;22.84;40.22;100496.13;4841086;29;7009;-70
2023/07/08 03:56:26;;;;;;;;;;;;;;;22.90;40.34;100497.88;4842155;29;6769;-71
2023/07/08 03:58:51;;;;;;;;;;;;;;;22.99;40.26;100494.38;4843852;29;6967;-69
2023/07/08 04:01:21;;;;;;;;;;;;;;;23.07;40.54;100489.13;4840653;29;6789;-70
2023/07/08 04:03:47;;;;;;;;;;;;;;;23.15;40.52;100487.38;4855317;29;6912;-72
2023/07/08 04:06:14;;;;;;;;;;;;;;;23.23;40.81;100492.56;4856941;29;6785;-71
2023/07/08 04:08:40;;;;;;;;;;;;;;;23.29;40.19;100487.38;4838563;29;7060;-70
2023/07/08 04:11:06;;;;;;;;;;;;;;;23.33;39.94;100486.47;4857792;29;7172;-70
2023/07/08 04:13:32;;;;;;;;;;;;;;;23.38;40.30;100492.56;4841313;29;7067;-71
2023/07/08 04:16:03;;;;;;;;;;;;;;;23.42;40.04;100501.28;4859733;29;6785;-70
2023/07/08 04:18:29;;;;;;;;;;;;;;;23.46;39.76;100496.88;4841250;29;7218;-70
2023/07/08 04:20:55;;;;;;;;;;;;;;;23.49;39.70;100491.66;4838743;29;6761;-70
2023/07/08 04:23:22;;;;;;;;;;;;;;;23.51;40.25;100495.13;4855007;29;6769;-71
2023/07/08 04:25:52;;;;;;;;;;;;;;;23.53;40.40;100490.75;4831784;29;8605;-70
2023/07/08 04:28:17;;;;;;;;;;;;;;;23.54;39.78;100489.88;4841912;29;6993;-70
2023/07/08 04:30:43;;;;;;;;;;;;;;;23.57;40.60;100484.66;4844876;29;7441;-70
2023/07/08 04:33:12;;;;;;;;;;;;;;;23.61;40.37;100485.47;4844411;29;6777;-72
2023/07/08 04:35:40;;;;;;;;;;;;;;;23.64;40.52;100485.47;4841921;29;7193;-71
2023/07/08 04:38:09;;;;;;;;;;;;;;;23.69;40.25;100495.03;4840601;29;6805;-70
2023/07/08 04:40:39;;;;;;;;;;;;;;;23.78;40.04;100501.97;4844297;29;7250;-69
2023/07/08 04:43:06;;;;;;;;;;;;;;;23.88;39.54;100502.81;4837076;29;6796;-70
2023/07/08 04:45:33;;;;;;;;;;;;;;;24.00;39.41;100499.25;4826062;29;8864;-71
2023/07/08 04:47:59;;;;;;;;;;;;;;;24.13;39.60;100489.56;4826561;29;6984;-70
2023/07/08 04:50:25;;;;;;;;;;;;;;;24.29;39.38;100495.59;4838076;29;6973;-72
2023/07/08 04:52:50;;;;;;;;;;;;;;;24.44;39.42;100504.19;4841088;29;8578;-70
2023/07/08 04:55:18;;;;;;;;;;;;;;;24.61;39.22;100501.44;4826600;29;6769;-69
2023/07/08 04:57:43;;;;;;;;;;;;;;;24.77;39.24;100495.19;4846022;29;6788;-70
2023/07/08 05:00:17;;;;;;;;;;;;;;;24.99;38.87;100494.13;4826089;29;7392;-69
2023/07/08 05:02:43;;;;;;;;;;;;;;;25.19;39.23;100491.28;4853480;29;11695;-71
2023/07/08 05:05:08;;;;;;;;;;;;;;;25.37;38.42;100491.06;4823635;29;7309;-69
2023/07/08 05:07:34;;;;;;;;;;;;;;;25.57;38.32;100495.22;4860855;29;6772;-71
2023/07/08 05:10:00;;;;;;;;;;;;;;;25.70;37.66;100481.97;4845201;29;7142;-70
2023/07/08 05:12:26;;;;;;;;;;;;;;;25.73;37.37;100489.78;4859953;29;6833;-69
2023/07/08 05:14:52;;;;;;;;;;;;;;;25.69;37.07;100488.06;4845895;29;7020;-71
2023/07/08 05:17:18;;;;;;;;;;;;;;;25.62;37.28;100489.91;4845721;29;6768;-71
2023/07/08 05:19:45;;;;;;;;;;;;;;;25.55;37.34;100489.13;4823282;29;7292;-69
2023/07/08 05:22:12;;;;;;;;;;;;;;;25.53;37.47;100493.53;4846046;29;6984;-70
2023/07/08 05:24:38;;;;;;;;;;;;;;;25.67;38.05;100495.09;4860016;29;6796;-69
2023/07/08 05:27:04;;;;;;;;;;;;;;;25.89;37.69;100493.94;4840236;29;7232;-71
2023/07/08 05:29:29;;;;;;;;;;;;;;;26.16;37.45;100486.53;4843652;29;6917;-69
2023/07/08 05:31:55;;;;;;;;;;;;;;;26.40;37.64;100486.19;4824616;29;7157;-72
2023/07/08 05:34:21;;;;;;;;;;;;;;;26.62;37.40;100487.56;4831509;29;7165;-70
2023/07/08 05:36:47;;;;;;;;;;;;;;;26.80;36.76;100489.91;4827979;29;7197;-72
2023/07/08 05:39:12;;;;;;;;;;;;;;;26.85;36.46;100490.69;4837854;29;6847;-70
2023/07/08 05:41:38;;;;;;;;;;;;;;;26.83;36.03;100488.06;4858881;29;6948;-72
2023/07/08 05:44:04;;;;;;;;;;;;;;;26.83;36.04;100482.81;4847711;29;6837;-69
2023/07/08 05:46:29;;;;;;;;;;;;;;;26.95;36.56;100484.41;4846641;29;6776;-71
2023/07/08 05:48:55;;;;;;;;;;;;;;;27.17;36.47;100476.09;4843677;29;6797;-71
2023/07/08 05:51:21;;;;;;;;;;;;;;;27.43;36.33;100479.94;4842343;29;6856;-71
2023/07/08 05:53:46;;;;;;;;;;;;;;;27.61;36.04;100481.34;4844415;29;6792;-69
2023/07/08 05:56:12;;;;;;;;;;;;;;;27.75;35.99;100481.03;4841108;29;6784;-69
2023/07/08 05:58:38;;;;;;;;;;;;;;;27.91;36.02;100484.19;4854011;29;6785;-71
2023/07/08 06:01:03;;;;;;;;;;;;;;;28.04;35.82;100486.53;4841383;29;6785;-70
2023/07/08 06:03:29;;;;;;;;;;;;;;;28.11;35.52;100480.22;4837562;29;6773;-71
2023/07/08 06:05:55;;;;;;;;;;;;;;;28.10;35.00;100481.13;4845054;29;6991;-72
2023/07/08 06:08:21;;;;;;;;;;;;;;;28.04;34.88;100482.13;4847702;29;6937;-70
2023/07/08 06:10:46;;;;;;;;;;;;;;;27.97;34.87;100484.06;4859444;29;6781;-70
2023/07/08 06:13:12;;;;;;;;;;;;;;;27.90;35.26;100484.22;4845225;29;6935;-69
2023/07/08 06:15:39;;;;;;;;;;;;;;;27.83;34.83;100494.91;4843098;29;7411;-69
2023/07/08 06:18:05;;;;;;;;;;;;;;;27.79;35.09;100492.38;4846673;29;7097;-69
2023/07/08 06:20:30;;;;;;;;;;;;;;;27.72;35.33;100486.38;4829585;29;6991;-70
2023/07/08 06:22:56;;;;;;;;;;;;;;;27.66;34.97;100495.25;4848290;29;6995;-70
2023/07/08 06:25:22;;;;;;;;;;;;;;;27.62;34.86;100490.09;4827125;29;6938;-69
2023/07/08 06:27:47;;;;;;;;;;;;;;;27.59;35.46;100489.25;4842775;29;6808;-69
2023/07/08 06:30:13;;;;;;;;;;;;;;;27.61;35.27;100506.78;4846722;29;6831;-72
2023/07/08 06:32:39;;;;;;;;;;;;;;;27.59;35.45;100518.22;4848206;29;7196;-70
2023/07/08 06:35:05;;;;;;;;;;;;;;;27.63;35.42;100515.53;4845426;29;6769;-71
2023/07/08 06:37:31;;;;;;;;;;;;;;;27.65;35.33;100517.22;4827655;29;8490;-70
2023/07/08 06:39:56;;;;;;;;;;;;;;;27.69;35.43;100502.22;4842869;29;6789;-69
2023/07/08 06:42:22;;;;;;;;;;;;;;;27.74;34.74;100503.00;4854078;29;7206;-68
2023/07/08 06:44:50;;;;;;;;;;;;;;;27.81;35.30;100509.00;4840534;29;6853;-69
2023/07/08 06:47:21;;;;;;;;;;;;;;;27.90;34.82;100510.53;4835759;29;6800;-72
2023/07/08 06:49:47;;;;;;;;;;;;;;;28.05;35.13;100498.78;4835046;29;7281;-70
2023/07/08 06:52:13;;;;;;;;;;;;;;;28.23;35.18;100502.81;4842085;29;6945;-69
2023/07/08 06:54:39;;;;;;;;;;;;;;;28.41;34.47;100497.09;4841215;29;6881;-71
2023/07/08 06:57:05;;;;;;;;;;;;;;;28.61;34.49;100500.97;4841725;29;6772;-70
2023/07/08 06:59:30;;;;;;;;;;;;;;;28.80;34.32;100497.88;4844541;29;6954;-71
2023/07/08 07:01:56;;;;;;;;;;;;;;;29.00;34.47;100497.34;4837820;29;6966;-70
2023/07/08 07:04:22;;;;;;;;;;;;;;;29.27;34.49;100496.63;4844850;29;6785;-70
2023/07/08 07:06:47;;;;;;;;;;;;;;;29.61;34.05;100498.28;4855363;29;6963;-70
2023/07/08 07:09:13;;;;;;;;;;;;;;;30.04;33.72;100494.34;4850866;29;6776;-71
2023/07/08 07:11:38;;;;;;;;;;;;;;;30.51;33.52;100484.03;4874370;29;7374;-72
2023/07/08 07:14:04;;;;;;;;;;;;;;;30.95;32.91;100492.19;4846640;29;6773;-70
2023/07/08 07:16:30;;;;;;;;;;;;;;;31.42;32.36;100490.53;4862044;29;6772;-71
2023/07/08 07:18:55;;;;;;;;;;;;;;;31.86;32.13;100489.75;4858413;29;6784;-71
2023/07/08 07:21:21;;;;;;;;;;;;;;;32.30;32.05;100477.41;4853440;29;6962;-70
2023/07/08 07:23:47;;;;;;;;;;;;;;;32.72;32.14;100479.16;4852614;29;6777;-70
2023/07/08 07:26:13;;;;;;;;;;;;;;;33.07;31.56;100476.75;4850083;29;6953;-71
2023/07/08 07:28:39;;;;;;;;;;;;;;;33.42;30.85;100470.75;4857068;29;6863;-71
2023/07/08 07:31:07;;;;;;;;;;;;;;;33.76;31.02;100473.63;4840383;29;7113;-70
2023/07/08 07:33:34;;;;;;;;;;;;;;;34.08;30.47;100476.50;4836115;29;6985;-71
2023/07/08 07:36:00;;;;;;;;;;;;;;;34.36;30.47;100477.78;4838706;29;8644;-72
2023/07/08 07:38:28;;;;;;;;;;;;;;;34.64;29.45;100465.75;4844363;29;7256;-70
2023/07/08 07:40:55;;;;;;;;;;;;;;;34.92;29.65;100479.41;4856625;29;6804;-72
2023/07/08 07:43:22;;;;;;;;;;;;;;;35.21;29.47;100487.66;4853664;29;6977;-72
2023/07/08 07:45:54;;;;;;;;;;;;;;;35.47;28.05;100483.56;4848853;29;6857;-71
2023/07/08 07:48:20;;;;;;;;;;;;;;;35.64;28.20;100481.75;4866518;29;6992;-70
2023/07/08 07:50:48;;;;;;;;;;;;;;;35.80;27.72;100487.09;4864941;29;7318;-70
2023/07/08 07:53:14;;;;;;;;;;;;;;;35.96;27.32;100479.91;4860087;29;6800;-71
2023/07/08 07:55:39;;;;;;;;;;;;;;;36.15;27.50;100484.19;4856771;29;6972;-71
2023/07/08 07:58:05;;;;;;;;;;;;;;;36.36;27.37;100479.41;4858556;29;6845;-67
2023/07/08 08:00:31;;;;;;;;;;;;;;;36.54;26.46;100485.44;4857035;29;6769;-69
2023/07/08 08:02:56;;;;;;;;;;;;;;;36.71;26.26;100485.44;4854759;29;6768;-68
2023/07/08 08:05:23;;;;;;;;;;;;;;;36.81;26.64;100470.56;4857675;29;7380;-69
2023/07/08 08:07:49;;;;;;;;;;;;;;;36.94;25.97;100478.63;4845872;29;6902;-69
2023/07/08 08:10:15;;;;;;;;;;;;;;;37.06;26.31;100477.03;4859763;29;7034;-68
2023/07/08 08:12:41;;;;;;;;;;;;;;;37.17;25.93;100477.22;4826168;29;7002;-68
2023/07/08 08:15:07;;;;;;;;;;;;;;;37.28;26.09;100484.56;4855601;29;6797;-71
2023/07/08 08:17:33;;;;;;;;;;;;;;;37.43;25.22;100476.53;4844047;29;6808;-68
2023/07/08 08:19:59;;;;;;;;;;;;;;;37.56;25.12;100476.59;4842651;29;6991;-68
2023/07/08 08:22:25;;;;;;;;;;;;;;;37.71;24.88;100485.44;4846529;29;6796;-71
2023/07/08 08:24:50;;;;;;;;;;;;;;;37.87;24.48;100486.16;4843285;29;6844;-68
2023/07/08 08:27:16;;;;;;;;;;;;;;;38.00;24.12;100483.50;4858519;29;7016;-70
2023/07/08 08:29:42;;;;;;;;;;;;;;;38.14;24.05;100479.06;4858116;29;6838;-69
2023/07/08 08:32:07;;;;;;;;;;;;;;;38.30;23.92;100477.09;4839368;29;6776;-69
2023/07/08 08:34:33;;;;;;;;;;;;;;;38.43;23.68;100493.16;4843184;29;7056;-69
2023/07/08 08:36:59;;;;;;;;;;;;;;;38.59;23.47;100487.63;4840976;29;6852;-68
2023/07/08 08:39:26;;;;;;;;;;;;;;;38.79;23.53;100481.84;4856551;29;7560;-68
2023/07/08 08:41:53;;;;;;;;;;;;;;;39.02;23.43;100490.97;4844335;29;6979;-69
2023/07/08 08:44:30;;;;;;;;;;;;;;;39.29;23.14;100495.28;4858975;29;7358;-68
2023/07/08 08:47:39;;;;;;;;;;;;;;;39.58;22.41;100489.66;4856939;29;6961;-69
2023/07/08 08:50:48;;;;;;;;;;;;;;;39.82;22.04;100497.69;4857913;29;6821;-70
2023/07/08 08:53:18;;;;;;;;;;;;;;;40.06;21.90;100499.53;4839877;29;6832;-69
2023/07/08 08:55:51;;;;;;;;;;;;;;;40.29;21.98;100493.41;4846773;29;6806;-70
2023/07/08 08:58:58;;;;;;;;;;;;;;;40.58;21.62;100501.91;4851168;29;7079;-68
2023/07/08 09:01:24;;;;;;;;;;;;;;;40.80;20.93;100498.41;4847717;29;6825;-68
2023/07/08 09:04:06;;;;;;;;;;;;;;;40.78;20.75;100500.38;4842872;29;6781;-69
2023/07/08 09:06:35;;;;;;;;;;;;;;;40.71;20.96;100499.09;4864856;29;6961;-71
2023/07/08 09:09:17;;;;;;;;;;;;;;;40.81;20.65;100486.69;4849494;29;7281;-70
2023/07/08 09:11:57;;;;;;;;;;;;;;;40.90;20.92;100495.00;4843392;29;6884;-70
2023/07/08 09:14:29;;;;;;;;;;;;;;;41.09;20.99;100492.53;4842537;29;7227;-70
2023/07/08 09:17:15;;;;;;;;;;;;;;;41.39;20.58;100489.34;4846473;29;6792;-69
2023/07/08 09:20:23;;;;;;;;;;;;;;;41.65;20.48;100498.00;4845976;29;6792;-69
2023/07/08 09:23:25;;;;;;;;;;;;;;;41.95;20.24;100487.50;4847757;29;6825;-70
2023/07/08 09:26:04;;;;;;;;;;;;;;;42.18;20.49;100490.94;4846609;29;7030;-69
2023/07/08 09:28:45;;;;;;;;;;;;;;;42.20;20.24;100497.06;4846448;29;6872;-70
2023/07/08 09:31:28;;;;;;;;;;;;;;;42.18;19.83;100494.47;4843770;29;7084;-69
2023/07/08 09:34:22;;;;;;;;;;;;;;;42.28;20.06;100491.88;4845903;29;6796;-70
2023/07/08 09:36:50;;;;;;;;;;;;;;;42.46;19.92;100486.72;4830756;29;7012;-70
2023/07/08 09:39:20;;;;;;;;;;;;;;;42.58;19.51;100484.84;4844090;29;7231;-71
2023/07/08 09:41:48;;;;;;;;;;;;;;;42.68;19.61;100486.72;4841421;29;7413;-71
2023/07/08 09:44:29;;;;;;;;;;;;;;;42.80;19.43;100472.16;4842557;29;7664;-70
2023/07/08 09:46:58;;;;;;;;;;;;;;;42.91;19.06;100473.06;4844115;29;6816;-71
2023/07/08 09:49:35;;;;;;;;;;;;;;;43.09;19.22;100476.00;4852933;29;6793;-71
2023/07/08 09:52:02;;;;;;;;;;;;;;;43.27;18.95;100474.34;4844707;29;7015;-71
2023/07/08 09:54:30;;;;;;;;;;;;;;;43.46;18.96;100488.84;4837825;29;7259;-71
2023/07/08 09:57:11;;;;;;;;;;;;;;;43.70;18.73;100482.22;4860285;29;7275;-71
2023/07/08 09:59:56;;;;;;;;;;;;;;;44.02;18.69;100486.47;4861316;29;7711;-71
2023/07/08 10:02:55;;;;;;;;;;;;;;;44.35;18.15;100480.78;4842783;29;6805;-71
2023/07/08 10:05:32;;;;;;;;;;;;;;;44.52;18.07;100476.44;4841649;29;6872;-71
2023/07/08 10:08:00;;;;;;;;;;;;;;;44.69;17.70;100474.00;4847798;29;6809;-71
2023/07/08 10:10:38;;;;;;;;;;;;;;;44.86;17.61;100475.94;4845870;29;6809;-70
2023/07/08 10:13:26;;;;;;;;;;;;;;;44.98;17.52;100467.66;4842877;29;7007;-70
2023/07/08 10:16:24;;;;;;;;;;;;;;;45.25;17.50;100479.44;4847694;29;6904;-69
2023/07/08 10:18:50;;;;;;;;;;;;;;;45.43;17.18;100474.06;4843464;29;6793;-70
2023/07/08 10:21:59;;;;;;;;;;;;;;;45.39;16.93;100472.69;4845686;29;6917;-71
2023/07/08 10:25:07;;;;;;;;;;;;;;;45.33;16.74;100479.53;4842035;29;6797;-72
2023/07/08 10:27:50;;;;;;;;;;;;;;;45.30;16.82;100474.44;4842905;29;7197;-70
2023/07/08 10:30:25;;;;;;;;;;;;;;;45.41;16.53;100474.25;4845697;29;6801;-71
2023/07/08 10:33:36;;;;;;;;;;;;;;;45.55;16.35;100464.75;4857480;29;6873;-72
2023/07/08 10:36:51;;;;;;;;;;;;;;;45.82;16.29;100476.47;4845451;29;7028;-71
2023/07/08 10:39:33;;;;;;;;;;;;;;;46.15;15.77;100471.31;4843907;29;7028;-72
2023/07/08 10:42:58;;;;;;;;;;;;;;;46.47;15.54;100474.44;4859162;29;6921;-71
2023/07/08 10:45:38;;;;;;;;;;;;;;;46.71;15.45;100471.03;4813587;29;6988;-71
2023/07/08 10:48:27;;;;;;;;;;;;;;;46.93;15.12;100466.03;4856091;29;6820;-71
2023/07/08 10:51:02;;;;;;;;;;;;;;;47.08;15.15;100468.09;4844864;29;6896;-71
2023/07/08 10:54:06;;;;;;;;;;;;;;;47.21;15.02;100473.91;4859448;29;6821;-71
2023/07/08 10:56:53;;;;;;;;;;;;;;;47.41;14.96;100474.47;4785739;29;7072;-71
2023/07/08 10:59:24;;;;;;;;;;;;;;;47.32;14.69;100470.03;4810403;29;6828;-71
2023/07/08 11:02:28;;;;;;;;;;;;;;;47.09;14.87;100461.69;4826748;29;7103;-71
2023/07/08 11:05:15;;;;;;;;;;;;;;;46.85;14.95;100471.41;4843116;29;7787;-70
2023/07/08 11:08:10;;;;;;;;;;;;;;;46.72;14.89;100461.88;4845405;29;7185;-69
2023/07/08 11:10:53;;;;;;;;;;;;;;;46.62;15.00;100468.44;4846156;29;6843;-70
2023/07/08 11:13:24;;;;;;;;;;;;;;;46.56;15.02;100468.09;4841278;29;7502;-70
2023/07/08 11:16:05;;;;;;;;;;;;;;;46.48;15.18;100469.84;4852092;29;8711;-70
2023/07/08 11:18:56;;;;;;;;;;;;;;;46.39;15.29;100477.09;4858372;29;6872;-70
2023/07/08 11:21:32;;;;;;;;;;;;;;;46.37;15.18;100468.28;4856233;29;6796;-70
2023/07/08 11:24:24;;;;;;;;;;;;;;;46.28;15.26;100470.94;4859933;29;6805;-69
2023/07/08 11:27:18;;;;;;;;;;;;;;;46.28;15.09;100473.66;4855876;29;6801;-70
2023/07/08 11:29:59;;;;;;;;;;;;;;;46.26;15.17;100467.53;4857461;29;6804;-70
2023/07/08 11:32:30;;;;;;;;;;;;;;;46.37;14.97;100462.88;4842728;29;7070;-70
2023/07/08 11:35:01;;;;;;;;;;;;;;;46.43;14.93;100456.78;4845126;29;7099;-70
2023/07/08 11:37:30;;;;;;;;;;;;;;;46.44;14.91;100459.34;4822593;29;6896;-71
2023/07/08 11:40:17;;;;;;;;;;;;;;;46.54;14.89;100453.78;4842329;29;6808;-70
2023/07/08 11:42:50;;;;;;;;;;;;;;;46.07;14.37;100459.56;4842280;29;6805;-70
2023/07/08 11:45:18;;;;;;;;;;;;;;;45.61;14.67;100452.44;4856700;29;6872;-69
2023/07/08 11:47:47;;;;;;;;;;;;;;;45.51;14.58;100454.38;4844791;29;6780;-70
2023/07/08 11:50:30;;;;;;;;;;;;;;;45.69;14.82;100447.09;4856758;29;7287;-69
2023/07/08 11:53:06;;;;;;;;;;;;;;;45.85;14.74;100459.09;4845517;29;6872;-69
2023/07/08 11:56:04;;;;;;;;;;;;;;;46.01;14.56;100448.38;4818379;29;7070;-69
2023/07/08 11:58:51;;;;;;;;;;;;;;;46.13;14.59;100448.13;4841010;29;6809;-70
2023/07/08 12:01:17;;;;;;;;;;;;;;;46.34;14.24;100447.78;4839062;29;6816;-70
2023/07/08 12:04:17;;;;;;;;;;;;;;;46.45;14.14;100452.03;4843767;29;7123;-69
2023/07/08 12:06:48;;;;;;;;;;;;;;;46.20;13.91;100446.50;4844849;29;7900;-69
2023/07/08 12:09:27;;;;;;;;;;;;;;;45.80;14.58;100439.78;4847073;29;7015;-70
2023/07/08 12:12:01;;;;;;;;;;;;;;;45.71;14.27;100439.69;4843895;29;6877;-69
2023/07/08 12:14:30;;;;;;;;;;;;;;;45.79;14.50;100443.50;4861992;29;7072;-69
2023/07/08 12:16:56;;;;;;;;;;;;;;;45.61;14.02;100437.03;4861709;29;7015;-69
2023/07/08 12:19:28;;;;;;;;;;;;;;;45.32;14.31;100439.97;4840883;29;6970;-70
2023/07/08 12:21:54;;;;;;;;;;;;;;;45.36;14.80;100444.06;4840990;29;6812;-70
2023/07/08 12:24:26;;;;;;;;;;;;;;;45.37;14.64;100440.34;4824225;29;8231;-70
2023/07/08 12:26:52;;;;;;;;;;;;;;;45.55;14.50;100436.81;4845501;29;7662;-70
2023/07/08 12:29:17;;;;;;;;;;;;;;;45.62;14.41;100440.63;4844465;29;6868;-69
2023/07/08 12:31:43;;;;;;;;;;;;;;;45.46;14.21;100439.44;4841177;29;6924;-70
2023/07/08 12:34:16;;;;;;;;;;;;;;;45.62;14.84;100437.91;4861325;29;7185;-70
2023/07/08 12:36:45;;;;;;;;;;;;;;;45.96;14.83;100445.28;4858662;29;7037;-70
2023/07/08 12:39:16;;;;;;;;;;;;;;;46.35;14.09;100437.78;4840824;29;6808;-70
2023/07/08 12:41:45;;;;;;;;;;;;;;;46.75;13.76;100436.31;4855745;29;6834;-69
2023/07/08 12:44:21;;;;;;;;;;;;;;;47.20;13.46;100436.97;4864726;29;6864;-70
2023/07/08 12:46:49;;;;;;;;;;;;;;;47.62;13.20;100426.16;4862111;29;6820;-70
2023/07/08 12:49:16;;;;;;;;;;;;;;;47.89;13.34;100424.97;4860988;29;7170;-70
2023/07/08 12:51:46;;;;;;;;;;;;;;;48.16;13.39;100425.63;4840763;29;6805;-70
2023/07/08 12:54:13;;;;;;;;;;;;;;;48.47;12.90;100422.16;4842300;29;6849;-70
2023/07/08 12:56:45;;;;;;;;;;;;;;;48.51;12.57;100423.50;4856063;29;6793;-69
2023/07/08 12:59:20;;;;;;;;;;;;;;;48.18;12.38;100423.59;4863752;29;6877;-70
2023/07/08 13:01:48;;;;;;;;;;;;;;;47.95;12.25;100429.72;4858389;29;6801;-70
2023/07/08 13:04:15;;;;;;;;;;;;;;;47.75;12.63;100433.84;4845527;29;7678;-70
2023/07/08 13:06:45;;;;;;;;;;;;;;;47.42;12.25;100426.50;4837070;29;7040;-70
2023/07/08 13:09:42;;;;;;;;;;;;;;;46.62;12.53;100433.19;4846816;29;6857;-69
2023/07/08 13:12:20;;;;;;;;;;;;;;;45.75;13.41;100432.09;4846093;29;6816;-70